sensor_id;sensor_type;location;lat;lon;timestamp;P1;durP1;ratioP1;P2;durP2;ratioP2
21258;SDS011;10787;53.364;-1.480;2023-03-14T00:01:18;2.13;;;1.67;;
21258;SDS011;10787;53.364;-1.480;2023-03-14T00:03:46;3.20;;;1.70;;
21258;SDS011;10787;53.364;-1.480;2023-03-14T00:06:12;3.57;;;1.83;;
21258;SDS011;10787;53.364;-1.480;2023-03-14T00:08:38;1.80;;;1.53;;
21258;SDS011;10787;53.364;-1.480;2023-03-14T00:11:06;1.73;;;1.50;;
21258;SDS011;10787;53.364;-1.480;2023-03-14T00:13:39;2.40;;;1.60;;
21258;SDS011;10787;53.364;-1.480;2023-03-14T00:16:07;2.00;;;1.50;;
21258;SDS011;10787;53.364;-1.480;2023-03-14T00:18:35;2.67;;;1.90;;
21258;SDS011;10787;53.364;-1.480;2023-03-14T00:21:01;3.50;;;1.67;;
21258;SDS011;10787;53.364;-1.480;2023-03-14T00:23:28;2.77;;;1.80;;
21258;SDS011;10787;53.364;-1.480;2023-03-14T00:26:01;2.60;;;1.83;;
21258;SDS011;10787;53.364;-1.480;2023-03-14T00:28:29;3.40;;;1.77;;
21258;SDS011;10787;53.364;-1.480;2023-03-14T00:30:55;3.07;;;1.87;;
21258;SDS011;10787;53.364;-1.480;2023-03-14T00:33:21;2.43;;;1.60;;
21258;SDS011;10787;53.364;-1.480;2023-03-14T00:35:54;2.20;;;1.60;;
21258;SDS011;10787;53.364;-1.480;2023-03-14T00:38:24;2.87;;;1.77;;
21258;SDS011;10787;53.364;-1.480;2023-03-14T00:40:53;2.57;;;1.80;;
21258;SDS011;10787;53.364;-1.480;2023-03-14T00:43:19;3.00;;;1.47;;
21258;SDS011;10787;53.364;-1.480;2023-03-14T00:45:51;2.40;;;1.60;;
21258;SDS011;10787;53.364;-1.480;2023-03-14T00:48:18;2.50;;;1.60;;
21258;SDS011;10787;53.364;-1.480;2023-03-14T00:50:44;2.77;;;1.60;;
21258;SDS011;10787;53.364;-1.480;2023-03-14T00:53:11;2.17;;;1.50;;
21258;SDS011;10787;53.364;-1.480;2023-03-14T00:55:40;2.93;;;1.83;;
21258;SDS011;10787;53.364;-1.480;2023-03-14T00:58:07;3.87;;;1.73;;
21258;SDS011;10787;53.364;-1.480;2023-03-14T01:00:35;2.83;;;1.77;;
21258;SDS011;10787;53.364;-1.480;2023-03-14T01:03:00;2.77;;;1.70;;
21258;SDS011;10787;53.364;-1.480;2023-03-14T01:05:27;1.80;;;1.40;;
21258;SDS011;10787;53.364;-1.480;2023-03-14T01:07:52;1.87;;;1.50;;
21258;SDS011;10787;53.364;-1.480;2023-03-14T01:10:18;2.50;;;1.60;;
21258;SDS011;10787;53.364;-1.480;2023-03-14T01:12:44;3.60;;;1.70;;
21258;SDS011;10787;53.364;-1.480;2023-03-14T01:15:10;2.43;;;1.67;;
21258;SDS011;10787;53.364;-1.480;2023-03-14T01:17:36;3.23;;;1.80;;
21258;SDS011;10787;53.364;-1.480;2023-03-14T01:20:04;1.87;;;1.60;;
21258;SDS011;10787;53.364;-1.480;2023-03-14T01:22:35;3.33;;;1.50;;
21258;SDS011;10787;53.364;-1.480;2023-03-14T01:25:01;3.53;;;1.67;;
21258;SDS011;10787;53.364;-1.480;2023-03-14T01:27:27;2.70;;;1.40;;
21258;SDS011;10787;53.364;-1.480;2023-03-14T01:29:53;3.50;;;1.40;;
21258;SDS011;10787;53.364;-1.480;2023-03-14T01:32:18;2.20;;;1.30;;
21258;SDS011;10787;53.364;-1.480;2023-03-14T01:35:03;2.13;;;1.17;;
21258;SDS011;10787;53.364;-1.480;2023-03-14T01:37:47;2.93;;;1.30;;
21258;SDS011;10787;53.364;-1.480;2023-03-14T01:40:31;2.67;;;1.60;;
21258;SDS011;10787;53.364;-1.480;2023-03-14T01:43:17;3.43;;;1.50;;
21258;SDS011;10787;53.364;-1.480;2023-03-14T01:54:28;6.50;;;1.60;;
21258;SDS011;10787;53.364;-1.480;2023-03-14T02:00:14;6.10;;;2.00;;
21258;SDS011;10787;53.364;-1.480;2023-03-14T02:03:02;5.60;;;1.80;;
21258;SDS011;10787;53.364;-1.480;2023-03-14T02:05:52;5.03;;;1.70;;
21258;SDS011;10787;53.364;-1.480;2023-03-14T02:08:43;5.13;;;1.93;;
21258;SDS011;10787;53.364;-1.480;2023-03-14T02:11:31;5.90;;;1.67;;
21258;SDS011;10787;53.364;-1.480;2023-03-14T02:14:32;5.30;;;1.70;;
21258;SDS011;10787;53.364;-1.480;2023-03-14T02:17:18;4.27;;;1.70;;
21258;SDS011;10787;53.364;-1.480;2023-03-14T02:26:32;7.43;;;2.20;;
21258;SDS011;10787;53.364;-1.480;2023-03-14T02:29:29;6.73;;;1.90;;
21258;SDS011;10787;53.364;-1.480;2023-03-14T02:32:16;6.17;;;1.90;;
21258;SDS011;10787;53.364;-1.480;2023-03-14T02:35:12;4.47;;;1.73;;
21258;SDS011;10787;53.364;-1.480;2023-03-14T02:38:13;5.93;;;1.80;;
21258;SDS011;10787;53.364;-1.480;2023-03-14T02:41:02;4.50;;;1.70;;
21258;SDS011;10787;53.364;-1.480;2023-03-14T02:43:47;5.23;;;1.80;;
21258;SDS011;10787;53.364;-1.480;2023-03-14T02:46:31;4.10;;;1.50;;
21258;SDS011;10787;53.364;-1.480;2023-03-14T02:49:15;4.77;;;1.77;;
21258;SDS011;10787;53.364;-1.480;2023-03-14T02:52:00;4.80;;;1.60;;
21258;SDS011;10787;53.364;-1.480;2023-03-14T02:54:45;4.07;;;1.13;;
21258;SDS011;10787;53.364;-1.480;2023-03-14T02:57:29;3.97;;;1.73;;
21258;SDS011;10787;53.364;-1.480;2023-03-14T03:00:14;4.20;;;1.60;;
21258;SDS011;10787;53.364;-1.480;2023-03-14T03:02:59;4.63;;;1.50;;
21258;SDS011;10787;53.364;-1.480;2023-03-14T03:05:51;4.50;;;1.47;;
21258;SDS011;10787;53.364;-1.480;2023-03-14T03:08:36;3.47;;;1.30;;
21258;SDS011;10787;53.364;-1.480;2023-03-14T03:11:20;6.43;;;1.67;;
21258;SDS011;10787;53.364;-1.480;2023-03-14T03:14:04;5.80;;;1.83;;
21258;SDS011;10787;53.364;-1.480;2023-03-14T03:16:49;4.10;;;1.60;;
21258;SDS011;10787;53.364;-1.480;2023-03-14T03:19:33;5.30;;;1.60;;
21258;SDS011;10787;53.364;-1.480;2023-03-14T03:22:18;6.37;;;1.87;;
21258;SDS011;10787;53.364;-1.480;2023-03-14T03:25:03;6.30;;;1.80;;
21258;SDS011;10787;53.364;-1.480;2023-03-14T03:27:49;6.33;;;1.87;;
21258;SDS011;10787;53.364;-1.480;2023-03-14T03:30:37;8.90;;;1.90;;
21258;SDS011;10787;53.364;-1.480;2023-03-14T03:33:25;8.57;;;2.10;;
21258;SDS011;10787;53.364;-1.480;2023-03-14T03:36:09;8.87;;;1.97;;
21258;SDS011;10787;53.364;-1.480;2023-03-14T03:38:53;8.07;;;2.67;;
21258;SDS011;10787;53.364;-1.480;2023-03-14T03:41:38;9.90;;;2.70;;
21258;SDS011;10787;53.364;-1.480;2023-03-14T03:44:22;7.47;;;2.50;;
21258;SDS011;10787;53.364;-1.480;2023-03-14T03:47:06;5.00;;;1.90;;
21258;SDS011;10787;53.364;-1.480;2023-03-14T03:49:51;7.70;;;2.30;;
21258;SDS011;10787;53.364;-1.480;2023-03-14T03:52:35;9.60;;;2.20;;
21258;SDS011;10787;53.364;-1.480;2023-03-14T03:55:19;7.07;;;2.10;;
21258;SDS011;10787;53.364;-1.480;2023-03-14T03:58:04;6.07;;;1.67;;
21258;SDS011;10787;53.364;-1.480;2023-03-14T04:00:48;7.10;;;2.00;;
21258;SDS011;10787;53.364;-1.480;2023-03-14T04:03:32;7.00;;;2.00;;
21258;SDS011;10787;53.364;-1.480;2023-03-14T04:06:17;5.67;;;2.00;;
21258;SDS011;10787;53.364;-1.480;2023-03-14T04:09:01;5.53;;;1.80;;
21258;SDS011;10787;53.364;-1.480;2023-03-14T04:11:46;11.40;;;2.30;;
21258;SDS011;10787;53.364;-1.480;2023-03-14T04:14:30;10.87;;;2.13;;
21258;SDS011;10787;53.364;-1.480;2023-03-14T04:17:14;12.23;;;2.20;;
21258;SDS011;10787;53.364;-1.480;2023-03-14T04:19:58;12.57;;;2.37;;
21258;SDS011;10787;53.364;-1.480;2023-03-14T04:22:42;14.57;;;2.30;;
21258;SDS011;10787;53.364;-1.480;2023-03-14T04:25:27;15.40;;;2.30;;
21258;SDS011;10787;53.364;-1.480;2023-03-14T04:28:11;15.53;;;2.80;;
21258;SDS011;10787;53.364;-1.480;2023-03-14T04:30:54;14.77;;;2.57;;
21258;SDS011;10787;53.364;-1.480;2023-03-14T04:33:39;12.10;;;2.20;;
21258;SDS011;10787;53.364;-1.480;2023-03-14T04:36:23;9.00;;;1.97;;
21258;SDS011;10787;53.364;-1.480;2023-03-14T04:39:08;11.57;;;2.30;;
21258;SDS011;10787;53.364;-1.480;2023-03-14T04:42:02;11.47;;;2.50;;
21258;SDS011;10787;53.364;-1.480;2023-03-14T04:44:46;9.90;;;2.10;;
21258;SDS011;10787;53.364;-1.480;2023-03-14T04:47:33;14.43;;;2.30;;
21258;SDS011;10787;53.364;-1.480;2023-03-14T04:50:17;14.10;;;2.53;;
21258;SDS011;10787;53.364;-1.480;2023-03-14T04:53:02;12.33;;;2.40;;
21258;SDS011;10787;53.364;-1.480;2023-03-14T04:55:50;11.53;;;2.63;;
21258;SDS011;10787;53.364;-1.480;2023-03-14T04:58:36;13.00;;;2.53;;
21258;SDS011;10787;53.364;-1.480;2023-03-14T05:01:21;11.93;;;2.70;;
21258;SDS011;10787;53.364;-1.480;2023-03-14T05:04:06;10.30;;;2.40;;
21258;SDS011;10787;53.364;-1.480;2023-03-14T05:06:50;13.90;;;2.80;;
21258;SDS011;10787;53.364;-1.480;2023-03-14T05:09:34;12.43;;;2.27;;
21258;SDS011;10787;53.364;-1.480;2023-03-14T05:12:19;9.90;;;2.23;;
21258;SDS011;10787;53.364;-1.480;2023-03-14T05:15:04;7.10;;;2.10;;
21258;SDS011;10787;53.364;-1.480;2023-03-14T05:17:49;9.53;;;2.20;;
21258;SDS011;10787;53.364;-1.480;2023-03-14T05:20:33;6.13;;;2.10;;
21258;SDS011;10787;53.364;-1.480;2023-03-14T05:23:19;11.57;;;2.30;;
21258;SDS011;10787;53.364;-1.480;2023-03-14T05:26:03;8.90;;;2.23;;
21258;SDS011;10787;53.364;-1.480;2023-03-14T05:28:48;13.97;;;2.47;;
21258;SDS011;10787;53.364;-1.480;2023-03-14T05:31:32;12.40;;;2.80;;
21258;SDS011;10787;53.364;-1.480;2023-03-14T05:34:16;15.43;;;2.67;;
21258;SDS011;10787;53.364;-1.480;2023-03-14T05:37:01;14.37;;;2.80;;
21258;SDS011;10787;53.364;-1.480;2023-03-14T05:39:45;14.60;;;2.77;;
21258;SDS011;10787;53.364;-1.480;2023-03-14T05:42:29;15.97;;;3.00;;
21258;SDS011;10787;53.364;-1.480;2023-03-14T05:45:14;12.60;;;2.77;;
21258;SDS011;10787;53.364;-1.480;2023-03-14T05:47:59;12.63;;;2.80;;
21258;SDS011;10787;53.364;-1.480;2023-03-14T05:50:43;13.17;;;3.17;;
21258;SDS011;10787;53.364;-1.480;2023-03-14T05:53:27;15.97;;;2.80;;
21258;SDS011;10787;53.364;-1.480;2023-03-14T05:56:12;18.77;;;3.20;;
21258;SDS011;10787;53.364;-1.480;2023-03-14T05:58:57;16.90;;;2.80;;
21258;SDS011;10787;53.364;-1.480;2023-03-14T06:01:41;14.10;;;2.70;;
21258;SDS011;10787;53.364;-1.480;2023-03-14T06:04:25;13.70;;;2.53;;
21258;SDS011;10787;53.364;-1.480;2023-03-14T06:07:10;18.10;;;2.97;;
21258;SDS011;10787;53.364;-1.480;2023-03-14T06:09:54;16.73;;;2.90;;
21258;SDS011;10787;53.364;-1.480;2023-03-14T06:12:38;19.10;;;2.83;;
21258;SDS011;10787;53.364;-1.480;2023-03-14T06:15:22;12.80;;;2.43;;
21258;SDS011;10787;53.364;-1.480;2023-03-14T06:18:06;14.60;;;2.23;;
21258;SDS011;10787;53.364;-1.480;2023-03-14T06:20:54;17.40;;;2.70;;
21258;SDS011;10787;53.364;-1.480;2023-03-14T06:23:39;10.93;;;2.37;;
21258;SDS011;10787;53.364;-1.480;2023-03-14T06:26:24;13.60;;;2.83;;
21258;SDS011;10787;53.364;-1.480;2023-03-14T06:29:08;10.00;;;2.67;;
21258;SDS011;10787;53.364;-1.480;2023-03-14T06:31:53;13.60;;;2.97;;
21258;SDS011;10787;53.364;-1.480;2023-03-14T06:34:38;19.70;;;2.80;;
21258;SDS011;10787;53.364;-1.480;2023-03-14T06:37:22;18.50;;;2.50;;
21258;SDS011;10787;53.364;-1.480;2023-03-14T06:40:07;14.47;;;2.30;;
21258;SDS011;10787;53.364;-1.480;2023-03-14T06:42:57;13.97;;;2.10;;
21258;SDS011;10787;53.364;-1.480;2023-03-14T06:45:41;13.63;;;2.30;;
21258;SDS011;10787;53.364;-1.480;2023-03-14T06:48:26;13.37;;;2.10;;
21258;SDS011;10787;53.364;-1.480;2023-03-14T06:51:10;17.23;;;2.20;;
21258;SDS011;10787;53.364;-1.480;2023-03-14T06:53:54;13.67;;;2.10;;
21258;SDS011;10787;53.364;-1.480;2023-03-14T06:56:38;13.30;;;2.57;;
21258;SDS011;10787;53.364;-1.480;2023-03-14T06:59:23;12.77;;;2.20;;
21258;SDS011;10787;53.364;-1.480;2023-03-14T07:02:10;16.43;;;2.17;;
21258;SDS011;10787;53.364;-1.480;2023-03-14T07:04:55;14.90;;;2.47;;
21258;SDS011;10787;53.364;-1.480;2023-03-14T07:07:39;13.70;;;2.47;;
21258;SDS011;10787;53.364;-1.480;2023-03-14T07:10:23;15.17;;;3.47;;
21258;SDS011;10787;53.364;-1.480;2023-03-14T07:13:08;17.80;;;3.60;;
21258;SDS011;10787;53.364;-1.480;2023-03-14T07:15:52;21.90;;;2.73;;
21258;SDS011;10787;53.364;-1.480;2023-03-14T07:18:36;11.30;;;2.30;;
21258;SDS011;10787;53.364;-1.480;2023-03-14T07:21:21;12.83;;;2.50;;
21258;SDS011;10787;53.364;-1.480;2023-03-14T07:24:06;12.77;;;1.93;;
21258;SDS011;10787;53.364;-1.480;2023-03-14T07:26:50;9.97;;;2.10;;
21258;SDS011;10787;53.364;-1.480;2023-03-14T07:29:34;11.13;;;2.33;;
21258;SDS011;10787;53.364;-1.480;2023-03-14T07:32:19;11.63;;;2.00;;
21258;SDS011;10787;53.364;-1.480;2023-03-14T07:35:03;27.93;;;3.20;;
21258;SDS011;10787;53.364;-1.480;2023-03-14T07:37:48;13.63;;;2.60;;
21258;SDS011;10787;53.364;-1.480;2023-03-14T07:40:32;18.73;;;2.47;;
21258;SDS011;10787;53.364;-1.480;2023-03-14T07:43:16;12.30;;;2.53;;
21258;SDS011;10787;53.364;-1.480;2023-03-14T07:46:00;8.13;;;2.00;;
21258;SDS011;10787;53.364;-1.480;2023-03-14T07:48:45;11.17;;;2.20;;
21258;SDS011;10787;53.364;-1.480;2023-03-14T07:51:29;10.77;;;1.97;;
21258;SDS011;10787;53.364;-1.480;2023-03-14T07:54:13;12.43;;;2.10;;
21258;SDS011;10787;53.364;-1.480;2023-03-14T07:56:58;10.87;;;2.27;;
21258;SDS011;10787;53.364;-1.480;2023-03-14T07:59:44;13.77;;;2.33;;
21258;SDS011;10787;53.364;-1.480;2023-03-14T08:02:28;12.90;;;2.63;;
21258;SDS011;10787;53.364;-1.480;2023-03-14T08:05:12;11.77;;;2.10;;
21258;SDS011;10787;53.364;-1.480;2023-03-14T08:07:57;12.93;;;2.40;;
21258;SDS011;10787;53.364;-1.480;2023-03-14T08:10:42;14.30;;;2.40;;
21258;SDS011;10787;53.364;-1.480;2023-03-14T08:13:26;13.60;;;2.27;;
21258;SDS011;10787;53.364;-1.480;2023-03-14T08:16:11;14.27;;;2.10;;
21258;SDS011;10787;53.364;-1.480;2023-03-14T08:18:55;12.90;;;2.00;;
21258;SDS011;10787;53.364;-1.480;2023-03-14T08:21:40;17.00;;;2.23;;
21258;SDS011;10787;53.364;-1.480;2023-03-14T08:24:24;9.73;;;1.97;;
21258;SDS011;10787;53.364;-1.480;2023-03-14T08:27:08;9.00;;;1.90;;
21258;SDS011;10787;53.364;-1.480;2023-03-14T08:30:06;10.87;;;1.90;;
21258;SDS011;10787;53.364;-1.480;2023-03-14T08:32:51;11.53;;;2.40;;
21258;SDS011;10787;53.364;-1.480;2023-03-14T08:35:37;7.70;;;1.60;;
21258;SDS011;10787;53.364;-1.480;2023-03-14T08:38:22;7.00;;;1.67;;
21258;SDS011;10787;53.364;-1.480;2023-03-14T08:41:06;13.50;;;1.80;;
21258;SDS011;10787;53.364;-1.480;2023-03-14T08:43:52;12.27;;;1.67;;
21258;SDS011;10787;53.364;-1.480;2023-03-14T08:46:36;6.97;;;1.60;;
21258;SDS011;10787;53.364;-1.480;2023-03-14T08:49:20;8.00;;;1.50;;
21258;SDS011;10787;53.364;-1.480;2023-03-14T08:52:07;7.17;;;1.50;;
21258;SDS011;10787;53.364;-1.480;2023-03-14T08:54:52;10.80;;;1.70;;
21258;SDS011;10787;53.364;-1.480;2023-03-14T08:57:36;6.57;;;1.67;;
21258;SDS011;10787;53.364;-1.480;2023-03-14T09:00:20;8.50;;;1.60;;
21258;SDS011;10787;53.364;-1.480;2023-03-14T09:03:05;10.40;;;1.57;;
21258;SDS011;10787;53.364;-1.480;2023-03-14T09:05:50;11.87;;;1.60;;
21258;SDS011;10787;53.364;-1.480;2023-03-14T09:08:35;13.30;;;1.70;;
21258;SDS011;10787;53.364;-1.480;2023-03-14T09:11:20;9.37;;;1.50;;
21258;SDS011;10787;53.364;-1.480;2023-03-14T09:14:04;10.07;;;1.90;;
21258;SDS011;10787;53.364;-1.480;2023-03-14T09:16:49;9.90;;;1.90;;
21258;SDS011;10787;53.364;-1.480;2023-03-14T09:19:34;10.83;;;1.70;;
21258;SDS011;10787;53.364;-1.480;2023-03-14T09:22:19;9.77;;;2.00;;
21258;SDS011;10787;53.364;-1.480;2023-03-14T09:25:04;12.50;;;1.77;;
21258;SDS011;10787;53.364;-1.480;2023-03-14T09:28:08;10.77;;;2.07;;
21258;SDS011;10787;53.364;-1.480;2023-03-14T09:30:52;8.77;;;2.17;;
21258;SDS011;10787;53.364;-1.480;2023-03-14T09:33:36;9.17;;;2.00;;
21258;SDS011;10787;53.364;-1.480;2023-03-14T09:36:21;8.50;;;2.17;;
21258;SDS011;10787;53.364;-1.480;2023-03-14T09:39:05;8.10;;;2.30;;
21258;SDS011;10787;53.364;-1.480;2023-03-14T09:41:50;7.60;;;2.10;;
21258;SDS011;10787;53.364;-1.480;2023-03-14T09:44:39;8.80;;;2.00;;
21258;SDS011;10787;53.364;-1.480;2023-03-14T09:47:36;8.70;;;1.90;;
21258;SDS011;10787;53.364;-1.480;2023-03-14T09:50:21;8.70;;;2.30;;
21258;SDS011;10787;53.364;-1.480;2023-03-14T09:53:07;13.30;;;2.30;;
21258;SDS011;10787;53.364;-1.480;2023-03-14T09:55:57;8.53;;;2.20;;
21258;SDS011;10787;53.364;-1.480;2023-03-14T09:58:43;9.00;;;2.40;;
21258;SDS011;10787;53.364;-1.480;2023-03-14T10:01:32;9.90;;;2.00;;
21258;SDS011;10787;53.364;-1.480;2023-03-14T10:04:17;11.87;;;2.53;;
21258;SDS011;10787;53.364;-1.480;2023-03-14T10:07:08;13.03;;;2.77;;
21258;SDS011;10787;53.364;-1.480;2023-03-14T10:09:58;13.57;;;2.40;;
21258;SDS011;10787;53.364;-1.480;2023-03-14T10:12:44;9.63;;;2.30;;
21258;SDS011;10787;53.364;-1.480;2023-03-14T10:15:38;10.27;;;2.07;;
21258;SDS011;10787;53.364;-1.480;2023-03-14T10:18:23;8.63;;;2.50;;
21258;SDS011;10787;53.364;-1.480;2023-03-14T10:21:17;7.20;;;1.73;;
21258;SDS011;10787;53.364;-1.480;2023-03-14T10:27:28;8.77;;;1.97;;
21258;SDS011;10787;53.364;-1.480;2023-03-14T10:31:02;6.80;;;1.60;;
21258;SDS011;10787;53.364;-1.480;2023-03-14T10:33:34;7.27;;;1.47;;
21258;SDS011;10787;53.364;-1.480;2023-03-14T10:36:23;8.23;;;1.60;;
21258;SDS011;10787;53.364;-1.480;2023-03-14T10:42:20;4.63;;;1.50;;
21258;SDS011;10787;53.364;-1.480;2023-03-14T10:51:06;6.90;;;1.53;;
21258;SDS011;10787;53.364;-1.480;2023-03-14T10:53:56;6.50;;;1.33;;
21258;SDS011;10787;53.364;-1.480;2023-03-14T10:56:41;8.10;;;1.80;;
21258;SDS011;10787;53.364;-1.480;2023-03-14T10:59:25;10.77;;;1.60;;
21258;SDS011;10787;53.364;-1.480;2023-03-14T11:02:34;9.47;;;1.90;;
21258;SDS011;10787;53.364;-1.480;2023-03-14T11:08:42;10.40;;;2.10;;
21258;SDS011;10787;53.364;-1.480;2023-03-14T11:11:37;9.83;;;1.87;;
21258;SDS011;10787;53.364;-1.480;2023-03-14T11:17:35;8.63;;;2.10;;
21258;SDS011;10787;53.364;-1.480;2023-03-14T11:26:42;5.43;;;1.30;;
21258;SDS011;10787;53.364;-1.480;2023-03-14T11:33:15;6.57;;;1.87;;
21258;SDS011;10787;53.364;-1.480;2023-03-14T11:36:12;11.83;;;1.93;;
21258;SDS011;10787;53.364;-1.480;2023-03-14T11:39:03;4.67;;;1.40;;
21258;SDS011;10787;53.364;-1.480;2023-03-14T11:41:58;7.10;;;1.13;;
21258;SDS011;10787;53.364;-1.480;2023-03-14T11:44:48;12.40;;;1.50;;
21258;SDS011;10787;53.364;-1.480;2023-03-14T11:47:34;6.23;;;1.50;;
21258;SDS011;10787;53.364;-1.480;2023-03-14T11:50:23;6.50;;;1.43;;
21258;SDS011;10787;53.364;-1.480;2023-03-14T11:53:19;6.23;;;1.30;;
21258;SDS011;10787;53.364;-1.480;2023-03-14T11:56:55;4.13;;;1.10;;
21258;SDS011;10787;53.364;-1.480;2023-03-14T12:00:12;2.90;;;1.23;;
21258;SDS011;10787;53.364;-1.480;2023-03-14T12:09:03;2.27;;;0.80;;
21258;SDS011;10787;53.364;-1.480;2023-03-14T12:14:44;4.00;;;1.10;;
21258;SDS011;10787;53.364;-1.480;2023-03-14T12:17:39;2.25;;;0.80;;
21258;SDS011;10787;53.364;-1.480;2023-03-14T12:20:26;1.80;;;0.70;;
21258;SDS011;10787;53.364;-1.480;2023-03-14T12:23:11;1.80;;;0.80;;
21258;SDS011;10787;53.364;-1.480;2023-03-14T12:41:44;1.58;;;0.80;;
21258;SDS011;10787;53.364;-1.480;2023-03-14T12:44:38;3.40;;;0.90;;
21258;SDS011;10787;53.364;-1.480;2023-03-14T12:50:23;4.57;;;1.15;;
21258;SDS011;10787;53.364;-1.480;2023-03-14T12:59:51;3.45;;;1.20;;
21258;SDS011;10787;53.364;-1.480;2023-03-14T13:02:43;5.18;;;1.05;;
21258;SDS011;10787;53.364;-1.480;2023-03-14T13:05:28;6.50;;;1.35;;
21258;SDS011;10787;53.364;-1.480;2023-03-14T13:08:13;5.38;;;1.20;;
21258;SDS011;10787;53.364;-1.480;2023-03-14T13:11:20;4.75;;;1.38;;
21258;SDS011;10787;53.364;-1.480;2023-03-14T13:14:08;3.50;;;1.45;;
21258;SDS011;10787;53.364;-1.480;2023-03-14T13:16:53;3.38;;;1.30;;
21258;SDS011;10787;53.364;-1.480;2023-03-14T13:19:38;4.50;;;1.60;;
21258;SDS011;10787;53.364;-1.480;2023-03-14T13:22:38;5.10;;;1.67;;
21258;SDS011;10787;53.364;-1.480;2023-03-14T13:25:31;4.77;;;1.80;;
21258;SDS011;10787;53.364;-1.480;2023-03-14T13:28:17;7.83;;;1.20;;
21258;SDS011;10787;53.364;-1.480;2023-03-14T13:31:02;4.33;;;1.40;;
21258;SDS011;10787;53.364;-1.480;2023-03-14T13:37:00;3.20;;;0.90;;
21258;SDS011;10787;53.364;-1.480;2023-03-14T13:39:48;4.13;;;1.20;;
21258;SDS011;10787;53.364;-1.480;2023-03-14T13:42:38;3.67;;;0.90;;
21258;SDS011;10787;53.364;-1.480;2023-03-14T13:45:23;4.17;;;0.97;;
21258;SDS011;10787;53.364;-1.480;2023-03-14T13:48:09;3.30;;;0.93;;
21258;SDS011;10787;53.364;-1.480;2023-03-14T13:50:58;3.37;;;1.00;;
21258;SDS011;10787;53.364;-1.480;2023-03-14T13:53:52;3.20;;;1.13;;
21258;SDS011;10787;53.364;-1.480;2023-03-14T13:56:38;4.40;;;1.03;;
21258;SDS011;10787;53.364;-1.480;2023-03-14T13:59:30;5.60;;;1.20;;
21258;SDS011;10787;53.364;-1.480;2023-03-14T14:02:16;5.37;;;1.13;;
21258;SDS011;10787;53.364;-1.480;2023-03-14T14:05:01;4.97;;;1.30;;
21258;SDS011;10787;53.364;-1.480;2023-03-14T14:07:45;3.90;;;1.20;;
21258;SDS011;10787;53.364;-1.480;2023-03-14T14:10:30;4.73;;;1.20;;
21258;SDS011;10787;53.364;-1.480;2023-03-14T14:13:16;3.43;;;0.87;;
21258;SDS011;10787;53.364;-1.480;2023-03-14T14:16:04;2.67;;;1.10;;
21258;SDS011;10787;53.364;-1.480;2023-03-14T14:18:50;3.93;;;1.07;;
21258;SDS011;10787;53.364;-1.480;2023-03-14T14:21:36;5.43;;;1.07;;
21258;SDS011;10787;53.364;-1.480;2023-03-14T14:24:22;3.97;;;1.10;;
21258;SDS011;10787;53.364;-1.480;2023-03-14T14:27:12;4.10;;;1.10;;
21258;SDS011;10787;53.364;-1.480;2023-03-14T14:33:11;3.13;;;1.30;;
21258;SDS011;10787;53.364;-1.480;2023-03-14T14:36:00;3.17;;;0.90;;
21258;SDS011;10787;53.364;-1.480;2023-03-14T14:38:52;3.03;;;1.00;;
21258;SDS011;10787;53.364;-1.480;2023-03-14T14:41:39;5.03;;;1.17;;
21258;SDS011;10787;53.364;-1.480;2023-03-14T14:44:35;6.70;;;1.10;;
21258;SDS011;10787;53.364;-1.480;2023-03-14T14:47:21;3.87;;;1.17;;
21258;SDS011;10787;53.364;-1.480;2023-03-14T14:50:20;6.03;;;1.23;;
21258;SDS011;10787;53.364;-1.480;2023-03-14T14:56:19;4.60;;;1.03;;
21258;SDS011;10787;53.364;-1.480;2023-03-14T14:59:18;6.00;;;1.07;;
21258;SDS011;10787;53.364;-1.480;2023-03-14T15:05:11;5.63;;;0.90;;
21258;SDS011;10787;53.364;-1.480;2023-03-14T15:08:00;5.10;;;1.17;;
21258;SDS011;10787;53.364;-1.480;2023-03-14T15:10:44;5.83;;;1.10;;
21258;SDS011;10787;53.364;-1.480;2023-03-14T15:13:28;7.30;;;1.20;;
21258;SDS011;10787;53.364;-1.480;2023-03-14T15:16:13;4.73;;;1.13;;
21258;SDS011;10787;53.364;-1.480;2023-03-14T15:19:01;5.67;;;1.30;;
21258;SDS011;10787;53.364;-1.480;2023-03-14T15:21:50;4.67;;;1.20;;
21258;SDS011;10787;53.364;-1.480;2023-03-14T15:24:37;3.83;;;1.20;;
21258;SDS011;10787;53.364;-1.480;2023-03-14T15:27:22;5.13;;;1.10;;
21258;SDS011;10787;53.364;-1.480;2023-03-14T15:30:08;4.57;;;1.10;;
21258;SDS011;10787;53.364;-1.480;2023-03-14T15:32:55;19.60;;;2.50;;
21258;SDS011;10787;53.364;-1.480;2023-03-14T15:35:40;3.57;;;1.50;;
21258;SDS011;10787;53.364;-1.480;2023-03-14T15:38:25;4.50;;;1.77;;
21258;SDS011;10787;53.364;-1.480;2023-03-14T15:41:09;4.13;;;1.77;;
21258;SDS011;10787;53.364;-1.480;2023-03-14T15:43:53;3.67;;;1.60;;
21258;SDS011;10787;53.364;-1.480;2023-03-14T15:46:38;4.63;;;1.87;;
21258;SDS011;10787;53.364;-1.480;2023-03-14T15:49:23;2.93;;;1.47;;
21258;SDS011;10787;53.364;-1.480;2023-03-14T15:52:07;4.63;;;1.63;;
21258;SDS011;10787;53.364;-1.480;2023-03-14T15:55:04;2.63;;;1.30;;
21258;SDS011;10787;53.364;-1.480;2023-03-14T15:57:48;3.37;;;1.40;;
21258;SDS011;10787;53.364;-1.480;2023-03-14T16:00:33;3.87;;;1.30;;
21258;SDS011;10787;53.364;-1.480;2023-03-14T16:03:21;3.97;;;1.20;;
21258;SDS011;10787;53.364;-1.480;2023-03-14T16:06:05;3.27;;;1.30;;
21258;SDS011;10787;53.364;-1.480;2023-03-14T16:08:50;2.33;;;1.30;;
21258;SDS011;10787;53.364;-1.480;2023-03-14T16:11:34;4.23;;;1.93;;
21258;SDS011;10787;53.364;-1.480;2023-03-14T16:14:19;2.70;;;1.30;;
21258;SDS011;10787;53.364;-1.480;2023-03-14T16:17:03;3.93;;;1.50;;
21258;SDS011;10787;53.364;-1.480;2023-03-14T16:20:09;4.53;;;2.10;;
21258;SDS011;10787;53.364;-1.480;2023-03-14T16:22:55;5.00;;;2.40;;
21258;SDS011;10787;53.364;-1.480;2023-03-14T16:25:39;4.23;;;2.47;;
21258;SDS011;10787;53.364;-1.480;2023-03-14T16:28:24;3.07;;;2.00;;
21258;SDS011;10787;53.364;-1.480;2023-03-14T16:31:10;3.00;;;1.90;;
21258;SDS011;10787;53.364;-1.480;2023-03-14T16:33:59;2.57;;;1.47;;
21258;SDS011;10787;53.364;-1.480;2023-03-14T16:36:46;3.20;;;1.40;;
21258;SDS011;10787;53.364;-1.480;2023-03-14T16:39:30;1.43;;;1.10;;
21258;SDS011;10787;53.364;-1.480;2023-03-14T16:42:15;2.33;;;1.10;;
21258;SDS011;10787;53.364;-1.480;2023-03-14T16:44:59;1.60;;;0.90;;
21258;SDS011;10787;53.364;-1.480;2023-03-14T16:47:43;1.33;;;0.80;;
21258;SDS011;10787;53.364;-1.480;2023-03-14T16:50:28;2.50;;;1.00;;
21258;SDS011;10787;53.364;-1.480;2023-03-14T16:53:13;3.13;;;0.90;;
21258;SDS011;10787;53.364;-1.480;2023-03-14T16:55:57;3.30;;;1.00;;
21258;SDS011;10787;53.364;-1.480;2023-03-14T16:58:43;2.93;;;1.20;;
21258;SDS011;10787;53.364;-1.480;2023-03-14T17:01:27;2.47;;;1.20;;
21258;SDS011;10787;53.364;-1.480;2023-03-14T17:04:11;3.40;;;1.30;;
21258;SDS011;10787;53.364;-1.480;2023-03-14T17:06:56;2.63;;;1.40;;
21258;SDS011;10787;53.364;-1.480;2023-03-14T17:09:46;2.07;;;1.40;;
21258;SDS011;10787;53.364;-1.480;2023-03-14T17:12:31;5.70;;;1.40;;
21258;SDS011;10787;53.364;-1.480;2023-03-14T17:15:16;3.07;;;1.10;;
21258;SDS011;10787;53.364;-1.480;2023-03-14T17:18:00;7.13;;;1.60;;
21258;SDS011;10787;53.364;-1.480;2023-03-14T17:20:45;5.40;;;1.50;;
21258;SDS011;10787;53.364;-1.480;2023-03-14T17:23:30;4.10;;;1.80;;
21258;SDS011;10787;53.364;-1.480;2023-03-14T17:26:16;2.63;;;1.40;;
21258;SDS011;10787;53.364;-1.480;2023-03-14T17:29:01;4.87;;;1.60;;
21258;SDS011;10787;53.364;-1.480;2023-03-14T17:31:46;5.67;;;2.10;;
21258;SDS011;10787;53.364;-1.480;2023-03-14T17:34:30;5.87;;;1.80;;
21258;SDS011;10787;53.364;-1.480;2023-03-14T17:37:14;3.53;;;1.70;;
21258;SDS011;10787;53.364;-1.480;2023-03-14T17:39:59;3.87;;;1.63;;
21258;SDS011;10787;53.364;-1.480;2023-03-14T17:42:46;4.20;;;1.80;;
21258;SDS011;10787;53.364;-1.480;2023-03-14T17:45:30;6.17;;;2.30;;
21258;SDS011;10787;53.364;-1.480;2023-03-14T17:48:14;4.27;;;2.00;;